Time,TemperatureF,DewpointF,PressureIn,WindDirection,WindDirectionDegrees,WindSpeedMPH,WindSpeedGustMPH,Humidity,HourlyPrecipIn,Conditions,Clouds,dailyrainin,SoftwareType,DateUTC
2013-01-19 00:01:00,70.2,58.7,30.11,NE,45,5.8,5.8,67,0.00,CLR,,0.00,WeatherDisplay:10.37,2013-01-19 05:01:00,
2013-01-19 00:03:00,70.3,58.9,30.11,SE,135,5.8,5.8,67,0.00,CLR,,0.00,WeatherDisplay:10.37,2013-01-19 05:03:00,
2013-01-19 00:07:00,70.3,58.9,30.11,ENE,68,6.9,6.9,67,0.00,CLR,,0.00,WeatherDisplay:10.37,2013-01-19 05:07:00,
2013-01-19 00:12:00,70.2,58.7,30.11,NE,45,6.9,6.9,67,0.00,CLR,,0.00,WeatherDisplay:10.37,2013-01-19 05:12:00,
2013-01-19 00:17:00,70.3,58.9,30.11,East,90,6.9,6.9,67,0.00,CLR,,0.00,WeatherDisplay:10.37,2013-01-19 05:17:00,
2013-01-19 00:22:00,70.3,58.9,30.11,ENE,68,4.6,4.6,67,0.00,CLR,,0.00,WeatherDisplay:10.37,2013-01-19 05:22:00,
2013-01-19 00:27:00,70.3,58.9,30.10,ESE,112,6.9,6.9,67,0.00,CLR,,0.00,WeatherDisplay:10.37,2013-01-19 05:27:00,
2013-01-19 00:32:00,70.3,58.9,30.10,ESE,112,2.3,3.3,67,0.00,CLR,,0.00,WeatherDisplay:10.37,2013-01-19 05:32:00,
2013-01-19 00:37:00,70.3,59.3,30.10,ENE,68,3.5,3.5,68,0.00,CLR,,0.00,WeatherDisplay:10.37,2013-01-19 05:37:00,
2013-01-19 00:42:00,70.3,59.3,30.10,ENE,68,4.6,4.6,68,0.00,CLR,,0.00,WeatherDisplay:10.37,2013-01-19 05:42:00,
2013-01-19 00:47:00,70.3,59.3,30.10,East,90,4.6,4.6,68,0.00,CLR,,0.00,WeatherDisplay:10.37,2013-01-19 05:47:00,
2013-01-19 00:52:00,70.3,59.3,30.10,ENE,68,4.6,4.6,68,0.00,CLR,,0.00,WeatherDisplay:10.37,2013-01-19 05:52:00,
2013-01-19 00:57:00,70.3,59.7,30.10,NNE,22,6.9,6.9,69,0.00,CLR,,0.00,WeatherDisplay:10.37,2013-01-19 05:57:00,
2013-01-19 01:02:00,70.3,59.7,30.10,ENE,68,3.5,3.9,69,0.00,CLR,,0.00,WeatherDisplay:10.37,2013-01-19 06:02:00,
2013-01-19 01:07:00,70.2,59.5,30.10,ESE,112,3.5,3.5,69,0.00,CLR,,0.00,WeatherDisplay:10.37,2013-01-19 06:07:00,
2013-01-19 01:12:00,70.2,59.1,30.10,NNE,22,3.5,3.6,68,0.00,CLR,,0.00,WeatherDisplay:10.37,2013-01-19 06:12:00,
2013-01-19 01:17:00,70.3,59.7,30.10,SE,135,4.6,4.6,69,0.00,CLR,,0.00,WeatherDisplay:10.37,2013-01-19 06:17:00,
2013-01-19 01:22:00,70.3,59.7,30.10,SE,135,3.5,3.7,69,0.00,CLR,,0.00,WeatherDisplay:10.37,2013-01-19 06:22:00,
2013-01-19 01:27:00,70.3,59.7,30.09,ESE,112,5.8,5.8,69,0.00,CLR,,0.00,WeatherDisplay:10.37,2013-01-19 06:27:00,
2013-01-19 01:32:00,70.3,59.7,30.09,SE,135,3.5,3.5,69,0.00,CLR,,0.00,WeatherDisplay:10.37,2013-01-19 06:32:00,
2013-01-19 01:37:00,70.2,59.5,30.09,ENE,68,4.6,4.6,69,0.00,CLR,,0.00,WeatherDisplay:10.37,2013-01-19 06:37:00,
2013-01-19 01:42:00,70.3,60.1,30.09,ESE,112,4.6,4.6,70,0.00,CLR,,0.00,WeatherDisplay:10.37,2013-01-19 06:42:00,
2013-01-19 01:47:00,70.3,59.7,30.08,East,90,5.8,5.8,69,0.00,CLR,,0.00,WeatherDisplay:10.37,2013-01-19 06:47:00,
2013-01-19 01:52:00,70.3,59.7,30.08,East,90,3.5,3.5,69,0.00,CLR,,0.00,WeatherDisplay:10.37,2013-01-19 06:52:00,
2013-01-19 01:57:00,70.3,60.1,30.08,ENE,68,6.9,6.9,70,0.00,CLR,,0.00,WeatherDisplay:10.37,2013-01-19 06:57:00,
2013-01-19 02:02:00,70.3,59.7,30.08,ESE,112,6.9,6.9,69,0.00,CLR,,0.00,WeatherDisplay:10.37,2013-01-19 07:02:00,
2013-01-19 02:07:00,70.5,59.9,30.08,ESE,112,4.6,4.6,69,0.00,CLR,,0.00,WeatherDisplay:10.37,2013-01-19 07:07:00,
2013-01-19 02:12:00,70.7,60.0,30.08,SE,135,5.8,5.8,69,0.00,CLR,,0.00,WeatherDisplay:10.37,2013-01-19 07:12:00,
2013-01-19 02:17:00,70.5,59.9,30.08,ENE,68,3.5,3.5,69,0.00,CLR,,0.00,WeatherDisplay:10.37,2013-01-19 07:17:00,
2013-01-19 02:23:00,70.5,59.9,30.08,ESE,112,3.5,3.5,69,0.00,CLR,,0.00,WeatherDisplay:10.37,2013-01-19 07:23:00,
2013-01-19 02:28:00,70.5,59.9,30.07,East,90,5.8,5.8,69,0.00,CLR,,0.00,WeatherDisplay:10.37,2013-01-19 07:28:00,
2013-01-19 02:33:00,70.5,59.9,30.07,NNW,338,4.6,4.6,69,0.00,CLR,,0.00,WeatherDisplay:10.37,2013-01-19 07:33:00,
2013-01-19 02:38:00,70.7,59.6,30.07,East,90,2.3,3.2,68,0.00,CLR,,0.00,WeatherDisplay:10.37,2013-01-19 07:38:00,
2013-01-19 02:43:00,70.7,60.0,30.07,ESE,112,3.5,3.5,69,0.00,CLR,,0.00,WeatherDisplay:10.37,2013-01-19 07:43:00,
2013-01-19 02:48:00,70.5,59.9,30.08,NE,45,2.3,2.3,69,0.00,CLR,,0.00,WeatherDisplay:10.37,2013-01-19 07:48:00,
2013-01-19 02:53:00,70.5,59.9,30.08,ENE,68,4.6,4.6,69,0.00,CLR,,0.00,WeatherDisplay:10.37,2013-01-19 07:53:00,
2013-01-19 02:58:00,70.5,59.9,30.08,ENE,68,4.6,4.6,69,0.00,CLR,,0.00,WeatherDisplay:10.37,2013-01-19 07:58:00,
2013-01-19 03:03:00,70.7,60.0,30.08,SSE,158,3.5,3.5,69,0.00,CLR,,0.00,WeatherDisplay:10.37,2013-01-19 08:03:00,
2013-01-19 03:08:00,70.7,60.0,30.07,ESE,112,3.5,3.5,69,0.00,CLR,,0.00,WeatherDisplay:10.37,2013-01-19 08:08:00,
2013-01-19 03:13:00,70.7,60.0,30.07,ENE,68,3.5,3.5,69,0.00,CLR,,0.00,WeatherDisplay:10.37,2013-01-19 08:13:00,
2013-01-19 03:18:00,70.7,60.0,30.07,SE,135,5.8,5.8,69,0.00,CLR,,0.00,WeatherDisplay:10.37,2013-01-19 08:18:00,
2013-01-19 03:23:00,70.5,59.4,30.07,ESE,112,4.6,4.6,68,0.00,CLR,,0.00,WeatherDisplay:10.37,2013-01-19 08:23:00,
2013-01-19 03:28:00,70.7,60.0,30.07,ESE,112,3.5,3.5,69,0.00,CLR,,0.00,WeatherDisplay:10.37,2013-01-19 08:28:00,
2013-01-19 03:33:00,70.7,60.0,30.07,SE,135,5.8,5.8,69,0.00,CLR,,0.00,WeatherDisplay:10.37,2013-01-19 08:33:00,
2013-01-19 03:38:00,70.7,60.0,30.07,ENE,68,2.3,2.8,69,0.00,CLR,,0.00,WeatherDisplay:10.37,2013-01-19 08:38:00,
2013-01-19 03:43:00,70.7,60.0,30.07,ENE,68,2.3,2.3,69,0.00,CLR,,0.00,WeatherDisplay:10.37,2013-01-19 08:43:00,
2013-01-19 03:48:00,70.7,60.0,30.07,NNE,22,2.3,2.4,69,0.00,CLR,,0.00,WeatherDisplay:10.37,2013-01-19 08:48:00,
2013-01-19 03:53:00,70.7,60.0,30.07,ENE,68,4.6,4.6,69,0.00,CLR,,0.00,WeatherDisplay:10.37,2013-01-19 08:53:00,
2013-01-19 03:58:00,70.7,60.0,30.07,SSE,158,3.5,3.5,69,0.00,CLR,,0.00,WeatherDisplay:10.37,2013-01-19 08:58:00,
2013-01-19 04:03:00,70.7,59.6,30.07,SE,135,2.3,2.3,68,0.00,CLR,,0.00,WeatherDisplay:10.37,2013-01-19 09:03:00,
2013-01-19 04:08:00,70.7,59.6,30.07,NNE,22,1.1,1.6,68,0.00,CLR,,0.00,WeatherDisplay:10.37,2013-01-19 09:08:00,
2013-01-19 04:13:00,70.7,59.6,30.07,ENE,68,2.3,2.3,68,0.00,CLR,,0.00,WeatherDisplay:10.37,2013-01-19 09:13:00,
2013-01-19 04:18:00,70.7,59.6,30.07,East,90,2.3,2.3,68,0.00,CLR,,0.00,WeatherDisplay:10.37,2013-01-19 09:18:00,
2013-01-19 04:23:00,70.7,59.6,30.07,NNE,22,3.5,3.5,68,0.00,CLR,,0.00,WeatherDisplay:10.37,2013-01-19 09:23:00,
2013-01-19 04:28:00,70.9,59.8,30.07,ESE,112,2.3,2.3,68,0.00,CLR,,0.00,WeatherDisplay:10.37,2013-01-19 09:28:00,
2013-01-19 04:33:00,70.7,60.0,30.07,ESE,112,4.6,4.6,69,0.00,CLR,,0.00,WeatherDisplay:10.37,2013-01-19 09:33:00,
2013-01-19 04:38:00,70.7,60.0,30.07,SE,135,3.5,3.5,69,0.00,CLR,,0.00,WeatherDisplay:10.37,2013-01-19 09:38:00,
2013-01-19 04:43:00,70.5,59.9,30.07,East,90,2.3,2.3,69,0.00,CLR,,0.00,WeatherDisplay:10.37,2013-01-19 09:43:00,
2013-01-19 04:48:00,70.7,60.0,30.07,ESE,112,3.5,3.5,69,0.00,CLR,,0.00,WeatherDisplay:10.37,2013-01-19 09:48:00,
2013-01-19 04:53:00,70.7,60.4,30.07,East,90,3.5,3.5,70,0.00,CLR,,0.00,WeatherDisplay:10.37,2013-01-19 09:53:00,
2013-01-19 04:58:00,70.7,60.4,30.07,ESE,112,0.0,2.0,70,0.00,CLR,,0.00,WeatherDisplay:10.37,2013-01-19 09:58:00,
2013-01-19 05:03:00,70.7,60.4,30.07,NE,45,1.1,1.5,70,0.00,CLR,,0.00,WeatherDisplay:10.37,2013-01-19 10:03:00,
2013-01-19 05:08:00,70.5,60.3,30.06,ENE,68,1.1,1.5,70,0.00,CLR,,0.00,WeatherDisplay:10.37,2013-01-19 10:08:00,
2013-01-19 05:13:00,70.7,60.4,30.06,ENE,68,2.3,2.3,70,0.00,CLR,,0.00,WeatherDisplay:10.37,2013-01-19 10:13:00,
2013-01-19 05:18:00,70.7,60.0,30.06,East,90,0.0,1.1,69,0.00,CLR,,0.00,WeatherDisplay:10.37,2013-01-19 10:18:00,
2013-01-19 05:23:00,70.5,59.9,30.06,ENE,68,1.1,1.1,69,0.00,CLR,,0.00,WeatherDisplay:10.37,2013-01-19 10:23:00,
2013-01-19 05:28:00,70.7,60.4,30.07,ENE,68,0.0,0.7,70,0.00,CLR,,0.00,WeatherDisplay:10.37,2013-01-19 10:28:00,
2013-01-19 05:33:00,70.5,59.9,30.07,NNW,338,2.3,2.3,69,0.00,CLR,,0.00,WeatherDisplay:10.37,2013-01-19 10:33:00,
2013-01-19 05:38:00,70.7,60.4,30.07,NE,45,3.5,3.5,70,0.00,CLR,,0.00,WeatherDisplay:10.37,2013-01-19 10:38:00,
2013-01-19 05:43:00,70.5,60.3,30.07,East,90,0.0,0.9,70,0.00,CLR,,0.00,WeatherDisplay:10.37,2013-01-19 10:43:00,
2013-01-19 05:48:00,70.7,60.8,30.06,NE,45,3.5,3.5,71,0.00,CLR,,0.00,WeatherDisplay:10.37,2013-01-19 10:48:00,
2013-01-19 05:53:00,70.7,60.8,30.06,North,0,2.3,2.3,71,0.00,CLR,,0.00,WeatherDisplay:10.37,2013-01-19 10:53:00,
2013-01-19 05:58:00,70.7,60.8,30.06,ENE,68,2.3,2.3,71,0.00,CLR,,0.00,WeatherDisplay:10.37,2013-01-19 10:58:00,
2013-01-19 06:03:00,70.7,60.8,30.06,ENE,68,1.1,1.1,71,0.00,CLR,,0.00,WeatherDisplay:10.37,2013-01-19 11:03:00,
2013-01-19 06:08:00,70.7,60.8,30.07,ENE,68,2.3,2.3,71,0.00,CLR,,0.00,WeatherDisplay:10.37,2013-01-19 11:08:00,
2013-01-19 06:13:00,70.9,61.4,30.07,East,90,2.3,2.3,72,0.00,CLR,,0.00,WeatherDisplay:10.37,2013-01-19 11:13:00,
2013-01-19 07:47:00,71.4,62.3,30.08,East,90,2.3,2.3,73,0.00,CLR,,0.00,WeatherDisplay:10.37,2013-01-19 12:47:00,
2013-01-19 07:48:00,71.4,62.3,30.08,East,90,2.3,2.3,73,0.00,CLR,,0.00,WeatherDisplay:10.37,2013-01-19 12:48:00,
2013-01-19 07:49:00,71.4,62.3,30.08,ENE,68,2.3,2.3,73,0.00,CLR,,0.00,WeatherDisplay:10.37,2013-01-19 12:49:00,
2013-01-19 07:54:00,71.4,61.9,30.08,ESE,112,3.5,3.5,72,0.00,CLR,,0.00,WeatherDisplay:10.37,2013-01-19 12:54:00,
2013-01-19 07:59:00,71.6,62.1,30.08,NNW,338,2.3,2.3,72,0.00,CLR,,0.00,WeatherDisplay:10.37,2013-01-19 12:59:00,
2013-01-19 08:04:00,71.6,62.1,30.08,NE,45,2.3,2.3,72,0.00,CLR,,0.00,WeatherDisplay:10.37,2013-01-19 13:04:00,
2013-01-19 08:09:00,71.6,62.1,30.08,ENE,68,2.3,2.3,72,0.00,CLR,,0.00,WeatherDisplay:10.37,2013-01-19 13:09:00,
2013-01-19 08:14:00,71.6,62.5,30.08,NNE,22,2.3,2.3,73,0.00,CLR,,0.00,WeatherDisplay:10.37,2013-01-19 13:14:00,
2013-01-19 08:19:00,71.6,62.5,30.08,ENE,68,0.0,0.9,73,0.00,CLR,,0.00,WeatherDisplay:10.37,2013-01-19 13:19:00,
2013-01-19 08:24:00,71.6,62.5,30.08,NNE,22,1.1,1.1,73,0.00,CLR,,0.00,WeatherDisplay:10.37,2013-01-19 13:24:00,
2013-01-19 08:29:00,71.8,62.7,30.08,ENE,68,3.5,3.5,73,0.00,CLR,,0.00,WeatherDisplay:10.37,2013-01-19 13:29:00,
2013-01-19 08:34:00,72.1,63.0,30.08,ESE,112,4.6,4.6,73,0.00,CLR,,0.00,WeatherDisplay:10.37,2013-01-19 13:34:00,
2013-01-19 08:39:00,71.8,62.7,30.08,NNE,22,0.0,1.1,73,0.00,CLR,,0.00,WeatherDisplay:10.37,2013-01-19 13:39:00,
2013-01-19 08:44:00,72.0,62.8,30.08,East,90,4.6,4.6,73,0.00,CLR,,0.00,WeatherDisplay:10.37,2013-01-19 13:44:00,
2013-01-19 08:49:00,72.0,62.8,30.09,East,90,0.0,1.0,73,0.00,CLR,,0.00,WeatherDisplay:10.37,2013-01-19 13:49:00,
2013-01-19 08:54:00,72.1,63.0,30.09,ENE,68,4.6,4.6,73,0.00,CLR,,0.00,WeatherDisplay:10.37,2013-01-19 13:54:00,
2013-01-19 08:59:00,72.1,62.6,30.09,ENE,68,3.5,3.5,72,0.00,CLR,,0.00,WeatherDisplay:10.37,2013-01-19 13:59:00,
2013-01-19 09:04:00,72.1,62.6,30.09,SE,135,1.1,2.5,72,0.00,CLR,,0.00,WeatherDisplay:10.37,2013-01-19 14:04:00,
2013-01-19 09:09:00,72.1,62.6,30.10,North,0,4.6,4.6,72,0.00,CLR,,0.00,WeatherDisplay:10.37,2013-01-19 14:09:00,
2013-01-19 09:14:00,72.1,63.0,30.10,NNE,22,3.5,3.5,73,0.00,CLR,,0.00,WeatherDisplay:10.37,2013-01-19 14:14:00,
2013-01-19 09:19:00,71.6,62.9,30.10,NNE,22,2.3,2.3,74,0.00,CLR,,0.00,WeatherDisplay:10.37,2013-01-19 14:19:00,
2013-01-19 09:24:00,71.6,63.3,30.10,East,90,4.6,4.6,75,0.00,CLR,,0.00,WeatherDisplay:10.37,2013-01-19 14:24:00,
2013-01-19 09:29:00,71.2,63.3,30.11,SE,135,9.2,9.2,76,0.00,CLR,,0.00,WeatherDisplay:10.37,2013-01-19 14:29:00,
2013-01-19 09:34:00,70.9,63.7,30.11,ESE,112,5.8,5.8,78,0.00,CLR,,0.00,WeatherDisplay:10.37,2013-01-19 14:34:00,
2013-01-19 09:39:00,70.9,64.0,30.11,SE,135,5.8,5.8,79,0.00,CLR,,0.00,WeatherDisplay:10.37,2013-01-19 14:39:00,
2013-01-19 09:44:00,71.1,64.2,30.11,ESE,112,2.3,3.7,79,0.00,CLR,,0.00,WeatherDisplay:10.37,2013-01-19 14:44:00,
2013-01-19 09:49:00,71.1,64.2,30.11,SE,135,3.5,3.5,79,0.00,CLR,,0.00,WeatherDisplay:10.37,2013-01-19 14:49:00,
2013-01-19 09:54:00,71.2,64.4,30.11,South,180,0.0,1.6,79,0.00,CLR,,0.00,WeatherDisplay:10.37,2013-01-19 14:54:00,
2013-01-19 09:59:00,70.9,64.0,30.11,SW,225,2.3,2.3,79,0.00,CLR,,0.00,WeatherDisplay:10.37,2013-01-19 14:59:00,
2013-01-19 10:04:00,70.3,63.5,30.11,WSW,248,2.3,2.3,79,0.00,CLR,,0.00,WeatherDisplay:10.37,2013-01-19 15:04:00,
2013-01-19 10:09:00,70.0,63.2,30.10,NNW,338,3.5,3.5,79,0.00,CLR,,0.00,WeatherDisplay:10.37,2013-01-19 15:09:00,
2013-01-19 10:14:00,69.4,63.0,30.10,WNW,292,2.3,2.3,80,0.03,RA,,0.03,WeatherDisplay:10.37,2013-01-19 15:14:00,
2013-01-19 10:19:00,69.4,63.0,30.10,West,270,1.1,1.1,80,0.03,RA,,0.03,WeatherDisplay:10.37,2013-01-19 15:19:00,
2013-01-19 10:24:00,69.6,63.2,30.10,North,0,2.3,2.3,80,0.03,,,0.03,WeatherDisplay:10.37,2013-01-19 15:24:00,
2013-01-19 10:29:00,69.3,63.2,30.10,SE,135,0.0,0.3,81,0.06,RA,,0.06,WeatherDisplay:10.37,2013-01-19 15:29:00,
2013-01-19 10:34:00,69.4,63.4,30.10,West,270,0.0,0.2,81,0.11,RA,,0.11,WeatherDisplay:10.37,2013-01-19 15:34:00,
2013-01-19 10:39:00,69.6,63.5,30.10,NNW,338,0.0,0.0,81,0.11,RA,,0.11,WeatherDisplay:10.37,2013-01-19 15:39:00,
2013-01-19 10:44:00,70.0,63.9,30.10,West,270,0.0,0.0,81,0.11,,,0.11,WeatherDisplay:10.37,2013-01-19 15:44:00,
2013-01-19 10:49:00,70.0,63.9,30.09,NW,315,0.0,0.1,81,0.11,CLR,,0.11,WeatherDisplay:10.37,2013-01-19 15:49:00,
2013-01-19 10:54:00,70.3,64.6,30.09,WNW,292,1.1,1.1,82,0.11,CLR,,0.11,WeatherDisplay:10.37,2013-01-19 15:54:00,
2013-01-19 10:59:00,70.3,64.2,30.09,South,180,0.0,0.1,81,0.11,CLR,,0.11,WeatherDisplay:10.37,2013-01-19 15:59:00,
2013-01-19 11:04:00,70.0,64.2,30.09,SW,225,0.0,0.1,82,0.11,CLR,,0.11,WeatherDisplay:10.37,2013-01-19 16:04:00,
2013-01-19 11:09:00,70.0,64.2,30.10,West,270,0.0,0.1,82,0.14,RA,,0.14,WeatherDisplay:10.37,2013-01-19 16:09:00,
2013-01-19 11:14:00,70.0,64.2,30.10,NNE,22,0.0,0.0,82,0.14,RA,,0.17,WeatherDisplay:10.37,2013-01-19 16:14:00,
2013-01-19 11:19:00,69.8,64.1,30.10,NNE,22,3.5,3.5,82,0.14,RA,,0.17,WeatherDisplay:10.37,2013-01-19 16:19:00,
2013-01-19 11:24:00,70.3,64.9,30.10,ENE,68,0.0,0.5,83,0.17,RA,,0.20,WeatherDisplay:10.37,2013-01-19 16:24:00,
2013-01-19 11:29:00,70.3,64.6,30.09,ESE,112,2.3,2.3,82,0.14,RA,,0.20,WeatherDisplay:10.37,2013-01-19 16:29:00,
2013-01-19 11:35:00,70.7,64.9,30.09,ESE,112,2.3,2.3,82,0.09,,,0.20,WeatherDisplay:10.37,2013-01-19 16:35:00,
2013-01-19 11:40:00,71.1,65.3,30.09,SE,135,1.1,1.1,82,0.09,CLR,,0.20,WeatherDisplay:10.37,2013-01-19 16:40:00,
2013-01-19 11:45:00,71.4,65.6,30.09,NNE,22,1.1,1.1,82,0.12,RA,,0.23,WeatherDisplay:10.37,2013-01-19 16:45:00,
2013-01-19 11:50:00,71.6,65.5,30.09,ESE,112,0.0,0.6,81,0.12,RA,,0.23,WeatherDisplay:10.37,2013-01-19 16:50:00,
2013-01-19 11:55:00,72.0,65.8,30.09,SE,135,1.1,1.1,81,0.12,,,0.23,WeatherDisplay:10.37,2013-01-19 16:55:00,
2013-01-19 12:00:00,72.1,65.6,30.09,WSW,248,0.0,0.2,80,0.12,CLR,,0.23,WeatherDisplay:10.37,2013-01-19 17:00:00,
2013-01-19 12:05:00,72.5,66.0,30.09,WSW,248,0.0,0.2,80,0.12,CLR,,0.23,WeatherDisplay:10.37,2013-01-19 17:05:00,
2013-01-19 12:10:00,72.5,66.0,30.08,WSW,248,0.0,0.2,80,0.09,CLR,,0.23,WeatherDisplay:10.37,2013-01-19 17:10:00,
2013-01-19 12:15:00,72.3,65.8,30.08,SSE,158,0.0,0.2,80,0.06,CLR,,0.23,WeatherDisplay:10.37,2013-01-19 17:15:00,
2013-01-19 12:20:00,72.5,66.0,30.08,East,90,0.0,0.0,80,0.06,CLR,,0.23,WeatherDisplay:10.37,2013-01-19 17:20:00,
2013-01-19 12:25:00,72.1,65.6,30.08,ENE,68,0.0,0.1,80,0.03,CLR,,0.23,WeatherDisplay:10.37,2013-01-19 17:25:00,
2013-01-19 12:30:00,71.6,65.1,30.08,ESE,112,3.5,3.5,80,0.03,CLR,,0.23,WeatherDisplay:10.37,2013-01-19 17:30:00,
2013-01-19 12:35:00,71.4,65.3,30.08,ESE,112,2.3,2.3,81,0.03,CLR,,0.23,WeatherDisplay:10.37,2013-01-19 17:35:00,
2013-01-19 12:40:00,71.6,65.5,30.08,SE,135,3.5,3.5,81,0.03,CLR,,0.23,WeatherDisplay:10.37,2013-01-19 17:40:00,
2013-01-19 12:46:00,71.4,65.3,30.08,East,90,2.3,2.3,81,0.00,CLR,,0.23,WeatherDisplay:10.37,2013-01-19 17:46:00,
2013-01-19 12:51:00,71.6,65.8,30.07,ESE,112,2.3,2.3,82,0.00,CLR,,0.23,WeatherDisplay:10.37,2013-01-19 17:51:00,
2013-01-19 12:56:00,72.3,66.5,30.07,SSE,158,0.0,0.8,82,0.00,CLR,,0.23,WeatherDisplay:10.37,2013-01-19 17:56:00,
2013-01-19 13:02:00,72.5,66.3,30.07,SSE,158,2.3,2.3,81,0.00,CLR,,0.23,WeatherDisplay:10.37,2013-01-19 18:02:00,
2013-01-19 13:08:00,72.5,66.3,30.06,SE,135,0.0,0.1,81,0.00,CLR,,0.23,WeatherDisplay:10.37,2013-01-19 18:08:00,
2013-01-19 13:13:00,72.3,66.2,30.06,SE,135,1.1,1.1,81,0.00,CLR,,0.23,WeatherDisplay:10.37,2013-01-19 18:13:00,
2013-01-19 13:18:00,72.5,66.3,30.06,ESE,112,0.0,0.3,81,0.00,CLR,,0.23,WeatherDisplay:10.37,2013-01-19 18:18:00,
2013-01-19 13:23:00,72.5,66.3,30.06,ESE,112,0.0,0.2,81,0.00,CLR,,0.23,WeatherDisplay:10.37,2013-01-19 18:23:00,
2013-01-19 13:28:00,72.5,66.3,30.05,NW,315,0.0,0.2,81,0.00,CLR,,0.23,WeatherDisplay:10.37,2013-01-19 18:28:00,
2013-01-19 13:33:00,72.5,66.0,30.05,NNE,22,0.0,0.1,80,0.00,CLR,,0.23,WeatherDisplay:10.37,2013-01-19 18:33:00,
2013-01-19 13:39:00,72.3,66.2,30.05,SE,135,1.1,1.1,81,0.00,CLR,,0.23,WeatherDisplay:10.37,2013-01-19 18:39:00,
2013-01-19 13:44:00,72.3,66.2,30.05,SE,135,1.1,1.1,81,0.00,CLR,,0.23,WeatherDisplay:10.37,2013-01-19 18:44:00,
2013-01-19 13:49:00,72.3,66.2,30.05,SE,135,4.6,4.6,81,0.00,CLR,,0.23,WeatherDisplay:10.37,2013-01-19 18:49:00,
2013-01-19 13:54:00,72.3,66.2,30.05,NE,45,2.3,2.3,81,0.00,CLR,,0.23,WeatherDisplay:10.37,2013-01-19 18:54:00,
2013-01-19 13:59:00,72.5,66.0,30.05,ENE,68,0.0,0.6,80,0.00,CLR,,0.23,WeatherDisplay:10.37,2013-01-19 18:59:00,
2013-01-19 14:04:00,72.9,66.3,30.05,ENE,68,0.0,0.1,80,0.00,CLR,,0.23,WeatherDisplay:10.37,2013-01-19 19:04:00,
2013-01-19 14:09:00,73.2,66.7,30.04,ENE,68,0.0,0.0,80,0.00,CLR,,0.23,WeatherDisplay:10.37,2013-01-19 19:09:00,
2013-01-19 14:14:00,73.2,66.7,30.04,ENE,68,0.0,0.0,80,0.00,CLR,,0.23,WeatherDisplay:10.37,2013-01-19 19:14:00,
2013-01-19 14:19:00,73.2,66.3,30.04,NNW,338,0.0,0.0,79,0.00,CLR,,0.23,WeatherDisplay:10.37,2013-01-19 19:19:00,
2013-01-19 14:25:00,72.9,66.0,30.04,NNW,338,0.0,0.1,79,0.00,CLR,,0.23,WeatherDisplay:10.37,2013-01-19 19:25:00,
2013-01-19 14:31:00,72.9,66.0,30.03,North,0,0.0,0.2,79,0.00,CLR,,0.23,WeatherDisplay:10.37,2013-01-19 19:31:00,
2013-01-19 14:36:00,73.0,66.1,30.03,NE,45,0.0,0.1,79,0.00,CLR,,0.23,WeatherDisplay:10.37,2013-01-19 19:36:00,
2013-01-19 14:42:00,72.5,65.6,30.03,ENE,68,3.5,3.5,79,0.00,CLR,,0.23,WeatherDisplay:10.37,2013-01-19 19:42:00,
2013-01-19 14:47:00,71.8,64.9,30.04,SE,135,4.6,4.6,79,0.03,RA,,0.25,WeatherDisplay:10.37,2013-01-19 19:47:00,
2013-01-19 14:52:00,71.4,64.9,30.04,NNE,22,2.3,2.3,80,0.03,,,0.25,WeatherDisplay:10.37,2013-01-19 19:52:00,
2013-01-19 14:58:00,71.6,65.5,30.04,East,90,2.3,2.3,81,0.06,RA,,0.28,WeatherDisplay:10.37,2013-01-19 19:58:00,
2013-01-19 15:03:00,71.8,65.6,30.04,SE,135,2.3,2.3,81,0.06,RA,,0.28,WeatherDisplay:10.37,2013-01-19 20:03:00,
2013-01-19 15:08:00,71.4,65.3,30.04,East,90,0.0,0.5,81,0.06,CLR,,0.28,WeatherDisplay:10.37,2013-01-19 20:08:00,
2013-01-19 15:13:00,71.6,65.5,30.04,East,90,2.3,2.3,81,0.06,CLR,,0.28,WeatherDisplay:10.37,2013-01-19 20:13:00,
2013-01-19 15:18:00,71.6,65.5,30.04,NE,45,1.1,1.1,81,0.06,CLR,,0.28,WeatherDisplay:10.37,2013-01-19 20:18:00,
2013-01-19 15:23:00,71.6,65.5,30.04,ESE,112,3.5,3.5,81,0.06,CLR,,0.28,WeatherDisplay:10.37,2013-01-19 20:23:00,
2013-01-19 15:29:00,71.4,65.3,30.03,North,0,4.6,4.6,81,0.06,CLR,,0.28,WeatherDisplay:10.37,2013-01-19 20:29:00,
2013-01-19 15:34:00,71.4,64.9,30.03,ENE,68,3.5,3.5,80,0.06,CLR,,0.28,WeatherDisplay:10.37,2013-01-19 20:34:00,
2013-01-19 15:39:00,71.1,64.2,30.03,ENE,68,4.6,4.6,79,0.06,CLR,,0.28,WeatherDisplay:10.37,2013-01-19 20:39:00,
2013-01-19 15:44:00,71.1,64.2,30.03,NNE,22,2.3,2.4,79,0.03,CLR,,0.28,WeatherDisplay:10.37,2013-01-19 20:44:00,
2013-01-19 15:49:00,71.1,64.2,30.03,ESE,112,2.3,2.3,79,0.03,CLR,,0.28,WeatherDisplay:10.37,2013-01-19 20:49:00,
2013-01-19 15:54:00,70.9,64.0,30.03,ENE,68,0.0,0.5,79,0.00,CLR,,0.28,WeatherDisplay:10.37,2013-01-19 20:54:00,
2013-01-19 15:59:00,71.1,64.2,30.03,SE,135,0.0,0.6,79,0.00,CLR,,0.28,WeatherDisplay:10.37,2013-01-19 20:59:00,
2013-01-19 16:04:00,71.2,64.4,30.03,East,90,1.1,1.1,79,0.00,CLR,,0.28,WeatherDisplay:10.37,2013-01-19 21:04:00,
2013-01-19 16:10:00,71.2,64.4,30.02,ESE,112,0.0,0.3,79,0.00,CLR,,0.28,WeatherDisplay:10.37,2013-01-19 21:10:00,
2013-01-19 16:15:00,71.4,64.6,30.02,ENE,68,1.1,1.1,79,0.00,CLR,,0.28,WeatherDisplay:10.37,2013-01-19 21:15:00,
2013-01-19 16:20:00,71.4,64.6,30.02,NE,45,1.1,1.1,79,0.00,CLR,,0.28,WeatherDisplay:10.37,2013-01-19 21:20:00,
2013-01-19 16:25:00,71.4,64.6,30.02,ENE,68,2.3,2.3,79,0.00,CLR,,0.28,WeatherDisplay:10.37,2013-01-19 21:25:00,
2013-01-19 16:30:00,71.4,64.6,30.02,NE,45,0.0,0.3,79,0.00,CLR,,0.28,WeatherDisplay:10.37,2013-01-19 21:30:00,
2013-01-19 16:37:00,71.4,64.9,30.02,East,90,0.0,0.1,80,0.00,CLR,,0.28,WeatherDisplay:10.37,2013-01-19 21:37:00,
2013-01-19 16:42:00,71.4,64.9,30.02,ENE,68,0.0,0.0,80,0.00,CLR,,0.28,WeatherDisplay:10.37,2013-01-19 21:42:00,
2013-01-19 16:47:00,71.4,64.9,30.01,NE,45,0.0,0.0,80,0.00,CLR,,0.28,WeatherDisplay:10.37,2013-01-19 21:47:00,
2013-01-19 16:53:00,71.4,64.9,30.01,ESE,112,0.0,0.0,80,0.00,CLR,,0.28,WeatherDisplay:10.37,2013-01-19 21:53:00,
2013-01-19 16:58:00,71.2,65.1,30.01,SE,135,0.0,0.0,81,0.00,CLR,,0.28,WeatherDisplay:10.37,2013-01-19 21:58:00,
2013-01-19 17:03:00,71.2,65.1,30.01,ESE,112,0.0,0.0,81,0.00,CLR,,0.28,WeatherDisplay:10.37,2013-01-19 22:03:00,
2013-01-19 17:08:00,71.4,65.3,30.01,ESE,112,0.0,0.0,81,0.00,CLR,,0.28,WeatherDisplay:10.37,2013-01-19 22:08:00,
2013-01-19 17:13:00,71.1,64.9,30.01,ESE,112,0.0,0.0,81,0.00,CLR,,0.28,WeatherDisplay:10.37,2013-01-19 22:13:00,
2013-01-19 17:18:00,71.1,65.3,30.01,NNE,22,0.0,0.0,82,0.00,CLR,,0.28,WeatherDisplay:10.37,2013-01-19 22:18:00,
2013-01-19 17:23:00,70.9,65.1,30.01,NNE,22,0.0,0.0,82,0.00,CLR,,0.28,WeatherDisplay:10.37,2013-01-19 22:23:00,
2013-01-19 17:29:00,70.9,65.1,30.00,NNE,22,0.0,0.0,82,0.00,CLR,,0.28,WeatherDisplay:10.37,2013-01-19 22:29:00,
2013-01-19 17:34:00,70.9,65.1,30.00,NNE,22,0.0,0.0,82,0.00,CLR,,0.28,WeatherDisplay:10.37,2013-01-19 22:34:00,
2013-01-19 17:39:00,70.7,64.9,30.00,ENE,68,0.0,0.0,82,0.00,CLR,,0.28,WeatherDisplay:10.37,2013-01-19 22:39:00,
2013-01-19 17:45:00,70.7,64.9,30.00,NNE,22,0.0,0.0,82,0.00,CLR,,0.28,WeatherDisplay:10.37,2013-01-19 22:45:00,
2013-01-19 17:50:00,70.7,64.9,30.00,NE,45,0.0,0.0,82,0.03,RA,,0.31,WeatherDisplay:10.37,2013-01-19 22:50:00,
2013-01-19 17:55:00,70.3,64.9,30.00,NNE,22,0.0,0.0,83,0.03,RA,,0.31,WeatherDisplay:10.37,2013-01-19 22:55:00,
2013-01-19 18:00:00,70.2,64.8,30.00,NE,45,0.0,0.0,83,0.03,,,0.31,WeatherDisplay:10.37,2013-01-19 23:00:00,
2013-01-19 18:05:00,70.2,64.8,30.00,NE,45,0.0,0.0,83,0.06,RA,,0.34,WeatherDisplay:10.37,2013-01-19 23:05:00,
2013-01-19 18:10:00,70.3,64.9,30.01,North,0,1.1,0.0,83,0.06,RA,,0.34,WeatherDisplay:10.37,2013-01-19 23:10:00,
2013-01-19 18:15:00,70.2,64.8,30.01,NNW,338,0.0,0.1,83,0.06,CLR,,0.34,WeatherDisplay:10.37,2013-01-19 23:15:00,
2013-01-19 18:21:00,70.0,64.6,30.01,NNE,22,0.0,0.1,83,0.06,CLR,,0.34,WeatherDisplay:10.37,2013-01-19 23:21:00,
2013-01-19 18:26:00,69.8,64.4,30.01,NNE,22,0.0,0.1,83,0.06,CLR,,0.34,WeatherDisplay:10.37,2013-01-19 23:26:00,
2013-01-19 18:32:00,70.0,64.6,30.01,ENE,68,0.0,0.1,83,0.06,CLR,,0.34,WeatherDisplay:10.37,2013-01-19 23:32:00,
2013-01-19 18:37:00,69.8,64.4,30.01,ENE,68,2.3,2.3,83,0.06,CLR,,0.34,WeatherDisplay:10.37,2013-01-19 23:37:00,
2013-01-19 18:42:00,70.0,64.6,30.01,East,90,2.3,2.3,83,0.06,CLR,,0.34,WeatherDisplay:10.37,2013-01-19 23:42:00,
2013-01-19 18:47:00,70.0,64.6,30.03,NNW,338,1.1,1.1,83,0.06,CLR,,0.34,WeatherDisplay:10.37,2013-01-19 23:47:00,
2013-01-19 18:53:00,70.0,64.6,30.03,NE,45,0.0,0.1,83,0.03,CLR,,0.34,WeatherDisplay:10.37,2013-01-19 23:53:00,
2013-01-19 18:58:00,69.8,64.4,30.03,NE,45,1.1,1.1,83,0.03,CLR,,0.34,WeatherDisplay:10.37,2013-01-19 23:58:00,
2013-01-19 19:04:00,69.8,64.4,30.03,NNE,22,0.0,0.8,83,0.00,CLR,,0.34,WeatherDisplay:10.37,2013-01-20 00:04:00,
2013-01-19 19:09:00,69.8,64.4,30.03,ENE,68,0.0,0.2,83,0.00,CLR,,0.34,WeatherDisplay:10.37,2013-01-20 00:09:00,
2013-01-19 19:14:00,69.6,64.2,30.03,NNE,22,0.0,0.0,83,0.00,CLR,,0.34,WeatherDisplay:10.37,2013-01-20 00:14:00,
2013-01-19 19:20:00,69.6,64.2,30.03,NNW,338,0.0,0.0,83,0.00,CLR,,0.34,WeatherDisplay:10.37,2013-01-20 00:20:00,
2013-01-19 19:25:00,69.6,64.2,30.03,NNW,338,0.0,0.1,83,0.00,CLR,,0.34,WeatherDisplay:10.37,2013-01-20 00:25:00,
2013-01-19 19:30:00,69.6,64.2,30.02,WSW,248,0.0,0.0,83,0.00,CLR,,0.34,WeatherDisplay:10.37,2013-01-20 00:30:00,
2013-01-19 19:35:00,69.4,64.0,30.02,NW,315,0.0,0.0,83,0.00,CLR,,0.34,WeatherDisplay:10.37,2013-01-20 00:35:00,
2013-01-19 19:40:00,69.6,64.2,30.02,NW,315,0.0,0.0,83,0.00,CLR,,0.34,WeatherDisplay:10.37,2013-01-20 00:40:00,
2013-01-19 19:45:00,69.4,64.0,30.02,WNW,292,0.0,0.0,83,0.00,CLR,,0.34,WeatherDisplay:10.37,2013-01-20 00:45:00,
2013-01-19 19:50:00,69.4,64.0,30.03,NNE,22,0.0,0.0,83,0.00,CLR,,0.34,WeatherDisplay:10.37,2013-01-20 00:50:00,
2013-01-19 19:56:00,69.4,64.4,30.03,NNE,22,0.0,0.0,84,0.00,CLR,,0.34,WeatherDisplay:10.37,2013-01-20 00:56:00,
2013-01-19 20:01:00,69.4,64.4,30.03,NW,315,0.0,0.0,84,0.00,CLR,,0.34,WeatherDisplay:10.37,2013-01-20 01:01:00,
2013-01-19 20:06:00,69.4,64.4,30.03,North,0,0.0,0.0,84,0.00,CLR,,0.34,WeatherDisplay:10.37,2013-01-20 01:06:00,
2013-01-19 20:12:00,69.4,64.4,30.03,NW,315,0.0,0.0,84,0.00,CLR,,0.34,WeatherDisplay:10.37,2013-01-20 01:12:00,
2013-01-19 20:19:00,69.6,64.6,30.03,North,0,0.0,0.0,84,0.00,CLR,,0.34,WeatherDisplay:10.37,2013-01-20 01:19:00,
2013-01-19 20:24:00,69.4,64.4,30.03,NNW,338,0.0,0.1,84,0.00,CLR,,0.34,WeatherDisplay:10.37,2013-01-20 01:24:00,
2013-01-19 20:29:00,69.4,64.4,30.04,NNW,338,1.1,1.1,84,0.00,CLR,,0.34,WeatherDisplay:10.37,2013-01-20 01:29:00,
2013-01-19 20:34:00,69.3,64.2,30.04,NNW,338,0.0,1.0,84,0.00,CLR,,0.34,WeatherDisplay:10.37,2013-01-20 01:34:00,
2013-01-19 20:39:00,69.3,64.2,30.04,North,0,2.3,2.3,84,0.00,CLR,,0.34,WeatherDisplay:10.37,2013-01-20 01:39:00,
2013-01-19 20:45:00,69.3,64.2,30.04,NNW,338,1.1,1.1,84,0.00,CLR,,0.34,WeatherDisplay:10.37,2013-01-20 01:45:00,
2013-01-19 20:50:00,69.3,64.2,30.03,NW,315,0.0,0.3,84,0.00,CLR,,0.34,WeatherDisplay:10.37,2013-01-20 01:50:00,
2013-01-19 20:56:00,69.3,64.2,30.03,North,0,0.0,0.3,84,0.00,CLR,,0.34,WeatherDisplay:10.37,2013-01-20 01:56:00,
2013-01-19 21:01:00,69.3,64.2,30.03,NNW,338,1.1,1.1,84,0.00,CLR,,0.34,WeatherDisplay:10.37,2013-01-20 02:01:00,
2013-01-19 21:07:00,69.1,64.0,30.03,NNE,22,1.1,1.1,84,0.00,CLR,,0.34,WeatherDisplay:10.37,2013-01-20 02:07:00,
2013-01-19 21:12:00,69.1,64.0,30.03,NNW,338,1.1,1.1,84,0.00,CLR,,0.34,WeatherDisplay:10.37,2013-01-20 02:12:00,
2013-01-19 21:18:00,69.1,64.0,30.03,West,270,0.0,0.3,84,0.00,CLR,,0.34,WeatherDisplay:10.37,2013-01-20 02:18:00,
2013-01-19 21:23:00,69.3,64.2,30.03,WSW,248,0.0,0.0,84,0.00,CLR,,0.34,WeatherDisplay:10.37,2013-01-20 02:23:00,
2013-01-19 21:28:00,69.3,64.2,30.03,NW,315,2.3,2.3,84,0.00,CLR,,0.34,WeatherDisplay:10.37,2013-01-20 02:28:00,
2013-01-19 21:33:00,69.1,64.0,30.03,NW,315,0.0,0.1,84,0.00,CLR,,0.34,WeatherDisplay:10.37,2013-01-20 02:33:00,
2013-01-19 21:39:00,69.1,64.0,30.03,WSW,248,2.3,2.3,84,0.00,CLR,,0.34,WeatherDisplay:10.37,2013-01-20 02:39:00,
2013-01-19 21:44:00,69.3,64.2,30.03,West,270,1.1,1.1,84,0.00,CLR,,0.34,WeatherDisplay:10.37,2013-01-20 02:44:00,
2013-01-19 21:49:00,69.3,64.2,30.03,NW,315,1.1,1.1,84,0.00,CLR,,0.34,WeatherDisplay:10.37,2013-01-20 02:49:00,
2013-01-19 21:54:00,69.3,64.2,30.03,West,270,0.0,0.2,84,0.00,CLR,,0.34,WeatherDisplay:10.37,2013-01-20 02:54:00,
2013-01-19 21:59:00,68.9,63.9,30.03,NNW,338,2.3,2.3,84,0.00,CLR,,0.34,WeatherDisplay:10.37,2013-01-20 02:59:00,
2013-01-19 22:04:00,68.9,63.9,30.03,NNW,338,0.0,0.1,84,0.00,CLR,,0.34,WeatherDisplay:10.37,2013-01-20 03:04:00,
2013-01-19 22:09:00,68.9,63.9,30.02,NW,315,0.0,0.1,84,0.00,CLR,,0.34,WeatherDisplay:10.37,2013-01-20 03:09:00,
2013-01-19 22:14:00,68.7,63.7,30.02,WSW,248,0.0,0.1,84,0.00,CLR,,0.34,WeatherDisplay:10.37,2013-01-20 03:14:00,
2013-01-19 22:19:00,68.9,63.9,30.02,WSW,248,0.0,0.0,84,0.00,CLR,,0.34,WeatherDisplay:10.37,2013-01-20 03:19:00,
2013-01-19 22:24:00,68.7,63.7,30.02,NW,315,0.0,0.0,84,0.00,CLR,,0.34,WeatherDisplay:10.37,2013-01-20 03:24:00,
2013-01-19 22:30:00,68.5,63.5,30.02,West,270,0.0,0.0,84,0.00,CLR,,0.34,WeatherDisplay:10.37,2013-01-20 03:30:00,
2013-01-19 22:35:00,68.5,63.5,30.02,NNE,22,0.0,0.0,84,0.00,CLR,,0.34,WeatherDisplay:10.37,2013-01-20 03:35:00,
2013-01-19 22:40:00,68.5,63.8,30.02,NNE,22,0.0,0.1,85,0.00,CLR,,0.34,WeatherDisplay:10.37,2013-01-20 03:40:00,
2013-01-19 22:46:00,68.5,63.8,30.02,NNW,338,0.0,0.1,85,0.00,CLR,,0.34,WeatherDisplay:10.37,2013-01-20 03:46:00,
2013-01-19 22:52:00,68.5,63.8,30.02,NW,315,0.0,0.0,85,0.00,CLR,,0.34,WeatherDisplay:10.37,2013-01-20 03:52:00,
2013-01-19 22:57:00,68.2,63.5,30.02,WSW,248,1.1,0.0,85,0.00,CLR,,0.34,WeatherDisplay:10.37,2013-01-20 03:57:00,
2013-01-19 23:03:00,68.2,63.2,30.02,NW,315,0.0,0.0,84,0.00,CLR,,0.34,WeatherDisplay:10.37,2013-01-20 04:03:00,
2013-01-19 23:08:00,68.0,63.3,30.02,NNW,338,0.0,0.0,85,0.00,CLR,,0.34,WeatherDisplay:10.37,2013-01-20 04:08:00,
2013-01-19 23:13:00,68.0,63.3,30.02,West,270,0.0,0.0,85,0.00,CLR,,0.34,WeatherDisplay:10.37,2013-01-20 04:13:00,
2013-01-19 23:18:00,68.2,63.5,30.02,NW,315,0.0,0.0,85,0.00,CLR,,0.34,WeatherDisplay:10.37,2013-01-20 04:18:00,
2013-01-19 23:23:00,68.2,63.5,30.02,WNW,292,0.0,0.0,85,0.00,CLR,,0.34,WeatherDisplay:10.37,2013-01-20 04:23:00,
2013-01-19 23:28:00,68.2,63.5,30.02,WNW,292,0.0,0.0,85,0.00,CLR,,0.34,WeatherDisplay:10.37,2013-01-20 04:28:00,
2013-01-19 23:33:00,68.2,63.5,30.02,WSW,248,1.1,1.1,85,0.00,CLR,,0.34,WeatherDisplay:10.37,2013-01-20 04:33:00,
2013-01-19 23:38:00,68.2,63.5,30.02,NNW,338,0.0,0.1,85,0.00,CLR,,0.34,WeatherDisplay:10.37,2013-01-20 04:38:00,
2013-01-19 23:43:00,68.2,63.5,30.02,North,0,0.0,0.1,85,0.00,CLR,,0.34,WeatherDisplay:10.37,2013-01-20 04:43:00,
2013-01-19 23:48:00,68.0,63.3,30.02,WNW,292,0.0,0.0,85,0.00,CLR,,0.34,WeatherDisplay:10.37,2013-01-20 04:48:00,
2013-01-19 23:53:00,68.2,63.5,30.02,North,0,0.0,0.0,85,0.00,CLR,,0.34,WeatherDisplay:10.37,2013-01-20 04:53:00,
2013-01-19 23:58:00,68.0,63.3,30.02,NNW,338,0.0,0.0,85,0.00,CLR,,0.34,WeatherDisplay:10.37,2013-01-20 04:58:00,